createdAt,value
2023-05-08T00:02:15.273Z,13.40
2023-05-08T00:07:18.604Z,13.30
2023-05-08T00:12:20.817Z,13.30
2023-05-08T00:17:23.058Z,13.30
2023-05-08T00:22:25.493Z,13.30
2023-05-08T00:27:27.682Z,13.30
2023-05-08T00:32:30.040Z,13.30
2023-05-08T00:37:32.310Z,13.30
2023-05-08T00:42:34.596Z,13.30
2023-05-08T00:47:37.267Z,13.30
2023-05-08T00:52:40.223Z,13.30
2023-05-08T00:57:45.056Z,13.30
2023-05-08T01:02:47.973Z,13.30
2023-05-08T01:07:51.682Z,13.30
2023-05-08T01:23:52.534Z,13.30
2023-05-08T01:34:33.262Z,13.30
2023-05-08T01:40:00.436Z,13.20
2023-05-08T01:45:10.890Z,13.20
2023-05-08T01:50:26.164Z,13.30
2023-05-08T01:55:34.802Z,13.30
2023-05-08T02:00:40.878Z,13.20
2023-05-08T02:05:45.017Z,13.30
2023-05-08T02:10:51.170Z,13.20
2023-05-08T02:15:55.947Z,13.20
2023-05-08T02:21:00.911Z,13.20
2023-05-08T02:26:04.730Z,13.20
2023-05-08T02:31:09.059Z,13.20
2023-05-08T02:36:13.858Z,13.20
2023-05-08T02:41:18.169Z,13.20
2023-05-08T02:57:00.158Z,13.20
2023-05-08T03:02:12.493Z,13.10
2023-05-08T03:07:16.575Z,13.10
2023-05-08T03:12:23.636Z,13.20
2023-05-08T03:17:28.885Z,13.20
2023-05-08T03:22:34.808Z,13.20
2023-05-08T03:27:38.617Z,13.20
2023-05-08T03:32:42.542Z,13.20
2023-05-08T03:37:45.173Z,13.20
2023-05-08T03:42:48.856Z,13.20
2023-05-08T03:47:53.951Z,13.30
2023-05-08T03:52:58.864Z,13.30
2023-05-08T03:58:24.859Z,13.40
2023-05-08T04:03:49.115Z,13.40
2023-05-08T04:09:03.394Z,13.50
2023-05-08T04:14:08.508Z,13.50
2023-05-08T04:19:19.562Z,13.40
2023-05-08T04:24:23.612Z,13.30
2023-05-08T04:29:26.402Z,13.30
2023-05-08T04:34:29.435Z,13.40
2023-05-08T04:39:31.779Z,13.30
2023-05-08T04:44:34.153Z,13.50
2023-05-08T04:49:36.765Z,13.50
2023-05-08T04:54:39.779Z,13.60
2023-05-08T04:59:42.149Z,13.60
2023-05-08T05:04:44.968Z,13.70
2023-05-08T05:09:47.522Z,13.60
2023-05-08T05:14:49.824Z,13.70
2023-05-08T05:19:53.542Z,13.80
2023-05-08T05:24:56.571Z,13.90
2023-05-08T05:29:59.977Z,14.00
2023-05-08T05:35:02.390Z,14.00
2023-05-08T05:40:05.408Z,14.10
2023-05-08T05:45:10.461Z,14.20
2023-05-08T05:50:13.185Z,14.50
2023-05-08T05:55:16.287Z,14.60
2023-05-08T06:00:19.393Z,14.60
2023-05-08T06:05:25.008Z,14.50
2023-05-08T06:10:27.859Z,14.50
2023-05-08T06:15:30.245Z,14.40
2023-05-08T06:20:32.688Z,14.40
2023-05-08T06:25:35.964Z,14.40
2023-05-08T06:30:38.207Z,14.50
2023-05-08T06:35:40.455Z,14.40
2023-05-08T06:40:44.195Z,14.60
2023-05-08T06:45:46.442Z,14.50
2023-05-08T06:50:48.692Z,14.90
2023-05-08T06:55:51.521Z,15.90
2023-05-08T07:00:53.744Z,16.80
2023-05-08T07:05:56.366Z,19.40
2023-05-08T07:10:58.985Z,21.20
2023-05-08T07:16:01.289Z,21.80
2023-05-08T07:21:04.130Z,20.30
2023-05-08T07:26:06.379Z,18.70
2023-05-08T07:31:08.705Z,17.80
2023-05-08T07:36:11.314Z,17.30
2023-05-08T07:41:13.725Z,16.50
2023-05-08T07:46:18.352Z,16.10
2023-05-08T07:51:20.606Z,15.90
2023-05-08T07:56:23.157Z,15.80
2023-05-08T08:01:25.446Z,16.10
2023-05-08T08:06:27.669Z,16.20
2023-05-08T08:11:30.177Z,16.30
2023-05-08T08:16:32.430Z,16.10
2023-05-08T08:21:35.087Z,15.90
2023-05-08T08:26:37.494Z,15.60
2023-05-08T08:31:39.803Z,15.80
2023-05-08T08:36:42.043Z,15.80
2023-05-08T08:41:45.053Z,15.90
2023-05-08T08:46:55.127Z,15.80
2023-05-08T08:52:03.160Z,15.40
2023-05-08T08:57:08.229Z,15.30
2023-05-08T09:02:12.806Z,15.00
2023-05-08T09:07:15.662Z,15.10
2023-05-08T09:12:18.243Z,14.90
2023-05-08T09:17:20.491Z,14.90
2023-05-08T09:22:24.513Z,15.00
2023-05-08T09:27:28.648Z,14.80
2023-05-08T09:32:32.973Z,14.90
2023-05-08T09:37:40.035Z,14.80
2023-05-08T09:42:42.308Z,14.50
2023-05-08T09:47:48.868Z,14.00
2023-05-08T09:52:51.286Z,14.00
2023-05-08T10:03:04.356Z,14.20
2023-05-08T10:08:24.298Z,14.70
2023-05-08T10:13:26.795Z,14.40
2023-05-08T10:18:32.008Z,14.30
2023-05-08T10:23:35.472Z,14.50
2023-05-08T10:33:54.844Z,14.20
2023-05-08T10:38:59.065Z,14.00
2023-05-08T10:44:03.353Z,13.80
2023-05-08T10:49:25.950Z,13.50
2023-05-08T10:54:51.788Z,13.70
2023-05-08T10:59:54.009Z,13.90
2023-05-08T11:05:16.922Z,13.70
2023-05-08T11:10:19.366Z,13.90
2023-05-08T11:15:37.691Z,13.90
2023-05-08T11:20:55.174Z,14.10
2023-05-08T11:26:03.852Z,14.10
2023-05-08T11:31:08.204Z,13.70
2023-05-08T11:36:26.553Z,13.60
2023-05-08T11:41:28.757Z,13.60
2023-05-08T11:46:38.688Z,13.30
2023-05-08T11:51:45.090Z,13.40
2023-05-08T11:56:49.484Z,13.60
2023-05-08T12:06:58.828Z,13.40
2023-05-08T12:12:01.127Z,14.00
2023-05-08T12:17:03.843Z,13.90
2023-05-08T12:22:06.179Z,13.90
2023-05-08T12:27:09.398Z,13.70
2023-05-08T12:32:11.718Z,13.50
2023-05-08T12:37:23.939Z,13.40
2023-05-08T12:42:46.625Z,13.30
2023-05-08T12:47:50.607Z,13.40
2023-05-08T12:52:53.645Z,13.10
2023-05-08T13:03:10.741Z,13.30
2023-05-08T13:08:13.164Z,12.80
2023-05-08T13:13:24.581Z,12.90
2023-05-08T13:18:27.900Z,13.00
2023-05-08T13:23:30.114Z,12.90
2023-05-08T13:28:32.500Z,12.80
2023-05-08T13:33:35.397Z,12.80
2023-05-08T13:38:37.656Z,12.90
2023-05-08T13:43:40.085Z,12.80
2023-05-08T13:48:42.272Z,12.60
2023-05-08T13:53:44.469Z,12.80
2023-05-08T13:58:46.810Z,12.70
2023-05-08T14:03:49.112Z,12.60
2023-05-08T14:08:55.317Z,12.80
2023-05-08T14:13:58.561Z,13.00
2023-05-08T14:19:01.490Z,12.80
2023-05-08T14:24:03.992Z,12.50
2023-05-08T14:29:06.336Z,12.80
2023-05-08T14:34:08.549Z,12.70
2023-05-08T14:39:10.928Z,12.50
2023-05-08T14:44:13.175Z,12.50
2023-05-08T14:49:22.309Z,12.40
2023-05-08T14:54:31.746Z,12.20
2023-05-08T14:59:34.140Z,12.00
2023-05-08T15:04:40.905Z,11.90
2023-05-08T15:09:43.258Z,12.00
2023-05-08T15:14:45.507Z,12.00
2023-05-08T15:19:48.859Z,12.30
2023-05-08T15:24:51.109Z,12.10
2023-05-08T15:29:54.132Z,12.00
2023-05-08T15:34:56.373Z,11.70
2023-05-08T15:39:58.599Z,11.50
2023-05-08T15:45:02.136Z,11.40
2023-05-08T15:50:04.984Z,11.50
2023-05-08T15:55:07.480Z,11.50
2023-05-08T16:00:10.361Z,11.10
2023-05-08T16:05:12.853Z,11.10
2023-05-08T16:10:15.200Z,11.10
2023-05-08T16:15:17.525Z,11.20
2023-05-08T16:20:20.404Z,11.00
2023-05-08T16:25:23.419Z,11.10
2023-05-08T16:30:25.912Z,11.10
2023-05-08T16:35:29.574Z,11.10
2023-05-08T16:40:31.966Z,11.00
2023-05-08T16:45:35.412Z,11.20
2023-05-08T16:50:37.631Z,11.20
2023-05-08T16:55:39.870Z,11.20
2023-05-08T17:00:43.302Z,11.00
2023-05-08T17:05:45.545Z,11.10
2023-05-08T17:10:47.749Z,11.30
2023-05-08T17:15:50.027Z,11.10
2023-05-08T17:20:52.588Z,11.10
2023-05-08T17:25:58.090Z,11.20
2023-05-08T17:31:00.606Z,11.00
2023-05-08T17:36:02.824Z,11.10
2023-05-08T17:41:05.163Z,11.20
2023-05-08T17:46:08.073Z,11.20
2023-05-08T17:51:14.110Z,11.10
2023-05-08T17:56:20.457Z,11.10
2023-05-08T18:01:22.929Z,11.10
2023-05-08T18:06:25.194Z,11.00
2023-05-08T18:11:27.431Z,11.00
2023-05-08T18:16:29.819Z,11.10
2023-05-08T18:21:32.520Z,11.10
2023-05-08T18:26:34.715Z,11.10
2023-05-08T18:31:37.211Z,11.00
2023-05-08T18:36:39.502Z,10.90
2023-05-08T18:41:41.747Z,10.90
2023-05-08T18:46:43.983Z,10.90
2023-05-08T18:51:46.372Z,10.90
2023-05-08T18:56:48.551Z,10.90
2023-05-08T19:01:51.324Z,10.90
2023-05-08T19:06:54.216Z,10.90
2023-05-08T19:11:56.429Z,10.90
2023-05-08T19:16:58.753Z,11.00
2023-05-08T19:22:01.366Z,11.10
2023-05-08T19:27:04.158Z,11.30
2023-05-08T19:32:06.904Z,11.30
2023-05-08T19:37:09.090Z,11.40
2023-05-08T19:42:13.778Z,11.60
2023-05-08T19:47:16.036Z,11.50
2023-05-08T19:52:18.305Z,11.50
2023-05-08T19:57:20.709Z,11.60
2023-05-08T20:02:23.007Z,11.70
2023-05-08T20:07:25.446Z,11.70
2023-05-08T20:12:27.697Z,11.50
2023-05-08T20:17:30.000Z,11.50
2023-05-08T20:22:32.664Z,11.40
2023-05-08T20:27:35.068Z,11.40
2023-05-08T20:32:38.510Z,11.60
2023-05-08T20:37:45.021Z,11.50
2023-05-08T20:42:47.231Z,11.40
2023-05-08T20:47:49.548Z,11.30
2023-05-08T20:52:51.969Z,11.20
2023-05-08T20:57:54.306Z,11.30
2023-05-08T21:02:56.657Z,11.50
2023-05-08T21:08:02.463Z,11.80
2023-05-08T21:13:05.535Z,11.90
2023-05-08T21:18:07.884Z,11.80
2023-05-08T21:23:11.351Z,11.90
2023-05-08T21:28:15.117Z,12.00
2023-05-08T21:33:19.102Z,12.10
2023-05-08T21:38:21.322Z,12.10
2023-05-08T21:43:23.503Z,12.00
2023-05-08T21:48:25.952Z,11.90
2023-05-08T21:53:28.327Z,12.10
2023-05-08T21:58:30.637Z,12.10
2023-05-08T22:03:33.200Z,12.20
2023-05-08T22:08:35.598Z,12.10
2023-05-08T22:13:37.827Z,12.20
2023-05-08T22:18:40.055Z,12.30
2023-05-08T22:23:43.492Z,12.40
2023-05-08T22:28:45.810Z,12.20
2023-05-08T22:33:48.292Z,12.30
2023-05-08T22:38:50.627Z,12.50
2023-05-08T22:43:53.185Z,12.40
2023-05-08T22:48:55.531Z,12.40
2023-05-08T22:53:57.771Z,12.40
2023-05-08T22:59:00.018Z,12.30
2023-05-08T23:04:02.298Z,12.50
2023-05-08T23:09:04.794Z,12.60
2023-05-08T23:14:06.995Z,12.60
2023-05-08T23:19:10.145Z,12.60
2023-05-08T23:24:12.869Z,12.50
2023-05-08T23:29:15.208Z,12.50
2023-05-08T23:34:17.653Z,12.60
2023-05-08T23:39:19.868Z,12.60
2023-05-08T23:44:22.074Z,12.70
2023-05-08T23:49:24.305Z,12.60
2023-05-08T23:54:26.911Z,12.40
2023-05-08T23:59:29.137Z,12.40
